sensor_id;sensor_type;location;lat;lon;timestamp;P1;durP1;ratioP1;P2;durP2;ratioP2
61523;SDS011;47393;38.758;-9.164;2023-08-06T00:01:50;6.22;;;3.90;;
61523;SDS011;47393;38.758;-9.164;2023-08-06T00:03:51;4.22;;;3.88;;
61523;SDS011;47393;38.758;-9.164;2023-08-06T00:05:52;6.90;;;3.90;;
61523;SDS011;47393;38.758;-9.164;2023-08-06T00:07:53;7.25;;;3.20;;
61523;SDS011;47393;38.758;-9.164;2023-08-06T00:09:54;5.55;;;3.92;;
61523;SDS011;47393;38.758;-9.164;2023-08-06T00:11:55;6.88;;;3.80;;
61523;SDS011;47393;38.758;-9.164;2023-08-06T00:13:57;6.50;;;3.40;;
61523;SDS011;47393;38.758;-9.164;2023-08-06T00:16:13;3.90;;;3.10;;
61523;SDS011;47393;38.758;-9.164;2023-08-06T00:18:14;11.88;;;3.83;;
61523;SDS011;47393;38.758;-9.164;2023-08-06T00:20:16;6.57;;;3.17;;
61523;SDS011;47393;38.758;-9.164;2023-08-06T00:22:17;5.47;;;3.72;;
61523;SDS011;47393;38.758;-9.164;2023-08-06T00:24:18;3.63;;;3.33;;
61523;SDS011;47393;38.758;-9.164;2023-08-06T00:26:19;11.27;;;3.90;;
61523;SDS011;47393;38.758;-9.164;2023-08-06T00:28:22;5.65;;;3.72;;
61523;SDS011;47393;38.758;-9.164;2023-08-06T00:30:23;9.48;;;4.18;;
61523;SDS011;47393;38.758;-9.164;2023-08-06T00:32:25;8.27;;;3.40;;
61523;SDS011;47393;38.758;-9.164;2023-08-06T00:34:26;4.45;;;3.90;;
61523;SDS011;47393;38.758;-9.164;2023-08-06T00:36:26;7.97;;;3.60;;
61523;SDS011;47393;38.758;-9.164;2023-08-06T00:38:27;5.95;;;3.50;;
61523;SDS011;47393;38.758;-9.164;2023-08-06T00:40:28;5.28;;;3.40;;
61523;SDS011;47393;38.758;-9.164;2023-08-06T00:42:30;5.25;;;3.70;;
61523;SDS011;47393;38.758;-9.164;2023-08-06T00:44:31;10.35;;;3.40;;
61523;SDS011;47393;38.758;-9.164;2023-08-06T00:46:32;4.63;;;3.13;;
61523;SDS011;47393;38.758;-9.164;2023-08-06T00:48:34;7.30;;;3.67;;
61523;SDS011;47393;38.758;-9.164;2023-08-06T00:50:35;11.00;;;3.80;;
61523;SDS011;47393;38.758;-9.164;2023-08-06T00:52:36;9.55;;;3.20;;
61523;SDS011;47393;38.758;-9.164;2023-08-06T00:54:39;6.00;;;3.40;;
61523;SDS011;47393;38.758;-9.164;2023-08-06T00:56:40;6.80;;;4.10;;
61523;SDS011;47393;38.758;-9.164;2023-08-06T00:58:41;6.80;;;3.92;;
61523;SDS011;47393;38.758;-9.164;2023-08-06T01:00:43;5.72;;;3.20;;
61523;SDS011;47393;38.758;-9.164;2023-08-06T01:02:44;5.60;;;3.50;;
61523;SDS011;47393;38.758;-9.164;2023-08-06T01:04:45;4.90;;;3.60;;
61523;SDS011;47393;38.758;-9.164;2023-08-06T01:06:48;13.90;;;4.35;;
61523;SDS011;47393;38.758;-9.164;2023-08-06T01:08:58;4.25;;;3.85;;
61523;SDS011;47393;38.758;-9.164;2023-08-06T01:13:15;6.93;;;3.80;;
61523;SDS011;47393;38.758;-9.164;2023-08-06T01:15:22;8.68;;;3.97;;
61523;SDS011;47393;38.758;-9.164;2023-08-06T01:17:25;5.78;;;3.72;;
61523;SDS011;47393;38.758;-9.164;2023-08-06T01:19:28;11.48;;;4.43;;
61523;SDS011;47393;38.758;-9.164;2023-08-06T01:21:29;7.85;;;4.00;;
61523;SDS011;47393;38.758;-9.164;2023-08-06T01:23:30;7.00;;;3.95;;
61523;SDS011;47393;38.758;-9.164;2023-08-06T01:25:33;5.55;;;4.18;;
61523;SDS011;47393;38.758;-9.164;2023-08-06T01:27:46;10.88;;;4.55;;
61523;SDS011;47393;38.758;-9.164;2023-08-06T01:29:49;10.55;;;4.85;;
61523;SDS011;47393;38.758;-9.164;2023-08-06T01:31:52;6.43;;;3.88;;
61523;SDS011;47393;38.758;-9.164;2023-08-06T01:33:54;7.85;;;4.50;;
61523;SDS011;47393;38.758;-9.164;2023-08-06T01:35:56;8.38;;;4.28;;
61523;SDS011;47393;38.758;-9.164;2023-08-06T01:37:58;11.85;;;3.92;;
61523;SDS011;47393;38.758;-9.164;2023-08-06T01:40:04;8.20;;;4.77;;
61523;SDS011;47393;38.758;-9.164;2023-08-06T01:42:06;11.93;;;4.50;;
61523;SDS011;47393;38.758;-9.164;2023-08-06T01:44:07;11.35;;;5.15;;
61523;SDS011;47393;38.758;-9.164;2023-08-06T01:46:08;7.60;;;4.35;;
61523;SDS011;47393;38.758;-9.164;2023-08-06T01:48:09;11.43;;;4.78;;
61523;SDS011;47393;38.758;-9.164;2023-08-06T01:50:10;14.18;;;5.00;;
61523;SDS011;47393;38.758;-9.164;2023-08-06T01:52:11;8.38;;;4.88;;
61523;SDS011;47393;38.758;-9.164;2023-08-06T01:54:12;13.43;;;5.13;;
61523;SDS011;47393;38.758;-9.164;2023-08-06T01:56:13;13.48;;;5.35;;
61523;SDS011;47393;38.758;-9.164;2023-08-06T01:58:14;15.13;;;5.82;;
61523;SDS011;47393;38.758;-9.164;2023-08-06T02:00:15;12.38;;;5.80;;
61523;SDS011;47393;38.758;-9.164;2023-08-06T02:02:16;12.82;;;5.53;;
61523;SDS011;47393;38.758;-9.164;2023-08-06T02:04:17;9.45;;;4.90;;
61523;SDS011;47393;38.758;-9.164;2023-08-06T02:06:18;10.93;;;5.05;;
61523;SDS011;47393;38.758;-9.164;2023-08-06T02:08:19;9.95;;;5.30;;
61523;SDS011;47393;38.758;-9.164;2023-08-06T02:10:21;10.80;;;5.57;;
61523;SDS011;47393;38.758;-9.164;2023-08-06T02:12:22;13.50;;;4.80;;
61523;SDS011;47393;38.758;-9.164;2023-08-06T02:14:26;10.70;;;4.88;;
61523;SDS011;47393;38.758;-9.164;2023-08-06T02:16:27;10.07;;;5.60;;
61523;SDS011;47393;38.758;-9.164;2023-08-06T02:18:27;14.52;;;5.82;;
61523;SDS011;47393;38.758;-9.164;2023-08-06T02:20:28;11.40;;;5.22;;
61523;SDS011;47393;38.758;-9.164;2023-08-06T02:22:33;18.27;;;6.10;;
61523;SDS011;47393;38.758;-9.164;2023-08-06T02:24:34;13.15;;;5.30;;
61523;SDS011;47393;38.758;-9.164;2023-08-06T02:26:35;15.65;;;4.68;;
61523;SDS011;47393;38.758;-9.164;2023-08-06T02:28:38;9.95;;;4.82;;
61523;SDS011;47393;38.758;-9.164;2023-08-06T02:30:39;10.52;;;5.40;;
61523;SDS011;47393;38.758;-9.164;2023-08-06T02:32:43;11.35;;;5.38;;
61523;SDS011;47393;38.758;-9.164;2023-08-06T02:34:44;13.43;;;5.53;;
61523;SDS011;47393;38.758;-9.164;2023-08-06T02:36:45;16.20;;;5.78;;
61523;SDS011;47393;38.758;-9.164;2023-08-06T02:38:46;17.70;;;5.40;;
61523;SDS011;47393;38.758;-9.164;2023-08-06T02:40:47;8.65;;;5.07;;
61523;SDS011;47393;38.758;-9.164;2023-08-06T02:42:48;11.55;;;5.30;;
61523;SDS011;47393;38.758;-9.164;2023-08-06T02:44:51;8.82;;;4.88;;
61523;SDS011;47393;38.758;-9.164;2023-08-06T02:46:53;12.05;;;5.70;;
61523;SDS011;47393;38.758;-9.164;2023-08-06T02:48:54;16.48;;;5.68;;
61523;SDS011;47393;38.758;-9.164;2023-08-06T02:50:58;20.33;;;5.97;;
61523;SDS011;47393;38.758;-9.164;2023-08-06T02:53:01;12.73;;;4.75;;
61523;SDS011;47393;38.758;-9.164;2023-08-06T02:55:02;12.23;;;5.00;;
61523;SDS011;47393;38.758;-9.164;2023-08-06T02:57:05;15.07;;;4.88;;
61523;SDS011;47393;38.758;-9.164;2023-08-06T02:59:08;20.50;;;5.03;;
61523;SDS011;47393;38.758;-9.164;2023-08-06T03:01:22;11.70;;;5.32;;
61523;SDS011;47393;38.758;-9.164;2023-08-06T03:03:30;14.18;;;5.13;;
61523;SDS011;47393;38.758;-9.164;2023-08-06T03:05:54;18.17;;;5.60;;
61523;SDS011;47393;38.758;-9.164;2023-08-06T03:08:07;16.85;;;5.80;;
61523;SDS011;47393;38.758;-9.164;2023-08-06T03:10:10;12.45;;;5.80;;
61523;SDS011;47393;38.758;-9.164;2023-08-06T03:12:11;8.90;;;5.38;;
61523;SDS011;47393;38.758;-9.164;2023-08-06T03:14:13;14.75;;;4.97;;
61523;SDS011;47393;38.758;-9.164;2023-08-06T03:16:14;15.07;;;5.63;;
61523;SDS011;47393;38.758;-9.164;2023-08-06T03:18:15;11.80;;;4.90;;
61523;SDS011;47393;38.758;-9.164;2023-08-06T03:20:15;14.70;;;5.45;;
61523;SDS011;47393;38.758;-9.164;2023-08-06T03:22:17;18.05;;;5.78;;
61523;SDS011;47393;38.758;-9.164;2023-08-06T03:24:19;15.27;;;5.50;;
61523;SDS011;47393;38.758;-9.164;2023-08-06T03:26:20;14.45;;;5.22;;
61523;SDS011;47393;38.758;-9.164;2023-08-06T03:28:21;12.05;;;5.40;;
61523;SDS011;47393;38.758;-9.164;2023-08-06T03:30:23;13.95;;;5.65;;
61523;SDS011;47393;38.758;-9.164;2023-08-06T03:32:27;13.07;;;5.45;;
61523;SDS011;47393;38.758;-9.164;2023-08-06T03:34:30;11.57;;;4.93;;
61523;SDS011;47393;38.758;-9.164;2023-08-06T03:36:32;12.25;;;5.25;;
61523;SDS011;47393;38.758;-9.164;2023-08-06T03:38:32;17.52;;;5.72;;
61523;SDS011;47393;38.758;-9.164;2023-08-06T03:40:36;14.43;;;5.28;;
61523;SDS011;47393;38.758;-9.164;2023-08-06T03:42:37;13.68;;;6.15;;
61523;SDS011;47393;38.758;-9.164;2023-08-06T03:44:38;19.10;;;5.72;;
61523;SDS011;47393;38.758;-9.164;2023-08-06T03:46:45;16.13;;;5.43;;
61523;SDS011;47393;38.758;-9.164;2023-08-06T03:48:45;15.48;;;5.95;;
61523;SDS011;47393;38.758;-9.164;2023-08-06T03:50:47;14.93;;;5.43;;
61523;SDS011;47393;38.758;-9.164;2023-08-06T03:52:50;15.07;;;5.43;;
61523;SDS011;47393;38.758;-9.164;2023-08-06T03:54:51;15.15;;;5.93;;
61523;SDS011;47393;38.758;-9.164;2023-08-06T03:56:53;14.32;;;5.30;;
61523;SDS011;47393;38.758;-9.164;2023-08-06T03:58:54;14.38;;;5.20;;
61523;SDS011;47393;38.758;-9.164;2023-08-06T04:01:01;18.08;;;5.65;;
61523;SDS011;47393;38.758;-9.164;2023-08-06T04:03:08;19.35;;;5.70;;
61523;SDS011;47393;38.758;-9.164;2023-08-06T04:05:09;17.45;;;5.43;;
61523;SDS011;47393;38.758;-9.164;2023-08-06T04:07:10;14.30;;;5.43;;
61523;SDS011;47393;38.758;-9.164;2023-08-06T04:09:10;17.70;;;5.72;;
61523;SDS011;47393;38.758;-9.164;2023-08-06T04:11:11;16.98;;;4.90;;
61523;SDS011;47393;38.758;-9.164;2023-08-06T04:13:16;13.38;;;5.00;;
61523;SDS011;47393;38.758;-9.164;2023-08-06T04:15:17;8.75;;;4.97;;
61523;SDS011;47393;38.758;-9.164;2023-08-06T04:17:18;25.45;;;6.22;;
61523;SDS011;47393;38.758;-9.164;2023-08-06T04:19:27;23.70;;;5.50;;
61523;SDS011;47393;38.758;-9.164;2023-08-06T04:21:28;12.93;;;5.57;;
61523;SDS011;47393;38.758;-9.164;2023-08-06T04:23:29;20.17;;;5.82;;
61523;SDS011;47393;38.758;-9.164;2023-08-06T04:25:34;13.77;;;5.85;;
61523;SDS011;47393;38.758;-9.164;2023-08-06T04:27:35;17.98;;;4.68;;
61523;SDS011;47393;38.758;-9.164;2023-08-06T04:29:37;19.50;;;5.70;;
61523;SDS011;47393;38.758;-9.164;2023-08-06T04:31:39;11.23;;;4.95;;
61523;SDS011;47393;38.758;-9.164;2023-08-06T04:33:39;16.58;;;5.90;;
61523;SDS011;47393;38.758;-9.164;2023-08-06T04:35:44;10.15;;;5.45;;
61523;SDS011;47393;38.758;-9.164;2023-08-06T04:37:45;15.73;;;5.35;;
61523;SDS011;47393;38.758;-9.164;2023-08-06T04:39:46;14.20;;;5.45;;
61523;SDS011;47393;38.758;-9.164;2023-08-06T04:41:47;18.95;;;5.65;;
61523;SDS011;47393;38.758;-9.164;2023-08-06T04:43:48;11.75;;;5.68;;
61523;SDS011;47393;38.758;-9.164;2023-08-06T04:45:49;13.13;;;4.95;;
61523;SDS011;47393;38.758;-9.164;2023-08-06T04:47:51;13.23;;;5.25;;
61523;SDS011;47393;38.758;-9.164;2023-08-06T04:49:52;20.92;;;5.75;;
61523;SDS011;47393;38.758;-9.164;2023-08-06T04:51:53;10.38;;;4.68;;
61523;SDS011;47393;38.758;-9.164;2023-08-06T04:53:56;18.63;;;5.47;;
61523;SDS011;47393;38.758;-9.164;2023-08-06T04:55:57;16.38;;;5.90;;
61523;SDS011;47393;38.758;-9.164;2023-08-06T04:57:57;16.15;;;5.30;;
61523;SDS011;47393;38.758;-9.164;2023-08-06T04:59:58;9.70;;;4.85;;
61523;SDS011;47393;38.758;-9.164;2023-08-06T05:01:59;11.63;;;5.78;;
61523;SDS011;47393;38.758;-9.164;2023-08-06T05:04:00;16.00;;;5.22;;
61523;SDS011;47393;38.758;-9.164;2023-08-06T05:06:00;15.38;;;5.70;;
61523;SDS011;47393;38.758;-9.164;2023-08-06T05:08:02;18.35;;;6.35;;
61523;SDS011;47393;38.758;-9.164;2023-08-06T05:10:04;23.60;;;6.43;;
61523;SDS011;47393;38.758;-9.164;2023-08-06T05:12:09;15.63;;;6.00;;
61523;SDS011;47393;38.758;-9.164;2023-08-06T05:14:09;24.48;;;5.82;;
61523;SDS011;47393;38.758;-9.164;2023-08-06T05:16:10;12.68;;;5.80;;
61523;SDS011;47393;38.758;-9.164;2023-08-06T05:18:11;20.60;;;6.55;;
61523;SDS011;47393;38.758;-9.164;2023-08-06T05:20:13;17.90;;;6.32;;
61523;SDS011;47393;38.758;-9.164;2023-08-06T05:22:14;18.58;;;6.22;;
61523;SDS011;47393;38.758;-9.164;2023-08-06T05:24:15;18.15;;;6.18;;
61523;SDS011;47393;38.758;-9.164;2023-08-06T05:26:16;22.38;;;6.18;;
61523;SDS011;47393;38.758;-9.164;2023-08-06T05:28:18;19.90;;;5.35;;
61523;SDS011;47393;38.758;-9.164;2023-08-06T05:30:20;16.42;;;6.40;;
61523;SDS011;47393;38.758;-9.164;2023-08-06T05:32:21;13.25;;;5.68;;
61523;SDS011;47393;38.758;-9.164;2023-08-06T05:34:25;17.10;;;6.07;;
61523;SDS011;47393;38.758;-9.164;2023-08-06T05:36:25;18.10;;;5.68;;
61523;SDS011;47393;38.758;-9.164;2023-08-06T05:38:26;16.98;;;5.88;;
61523;SDS011;47393;38.758;-9.164;2023-08-06T05:40:27;14.30;;;5.55;;
61523;SDS011;47393;38.758;-9.164;2023-08-06T05:42:28;24.95;;;6.00;;
61523;SDS011;47393;38.758;-9.164;2023-08-06T05:44:28;12.38;;;5.53;;
61523;SDS011;47393;38.758;-9.164;2023-08-06T05:46:29;14.00;;;5.20;;
61523;SDS011;47393;38.758;-9.164;2023-08-06T05:48:30;11.18;;;5.72;;
61523;SDS011;47393;38.758;-9.164;2023-08-06T05:50:32;18.90;;;6.90;;
61523;SDS011;47393;38.758;-9.164;2023-08-06T05:52:33;21.60;;;6.43;;
61523;SDS011;47393;38.758;-9.164;2023-08-06T05:54:34;17.63;;;6.75;;
61523;SDS011;47393;38.758;-9.164;2023-08-06T05:56:34;23.40;;;6.68;;
61523;SDS011;47393;38.758;-9.164;2023-08-06T05:58:35;25.70;;;6.80;;
61523;SDS011;47393;38.758;-9.164;2023-08-06T06:00:37;26.17;;;6.50;;
61523;SDS011;47393;38.758;-9.164;2023-08-06T06:02:38;20.00;;;6.95;;
61523;SDS011;47393;38.758;-9.164;2023-08-06T06:04:40;15.38;;;6.25;;
61523;SDS011;47393;38.758;-9.164;2023-08-06T06:06:41;27.38;;;7.20;;
61523;SDS011;47393;38.758;-9.164;2023-08-06T06:08:44;24.55;;;7.55;;
61523;SDS011;47393;38.758;-9.164;2023-08-06T06:10:45;14.73;;;6.50;;
61523;SDS011;47393;38.758;-9.164;2023-08-06T06:12:46;24.08;;;7.47;;
61523;SDS011;47393;38.758;-9.164;2023-08-06T06:14:47;21.75;;;6.47;;
61523;SDS011;47393;38.758;-9.164;2023-08-06T06:16:47;16.73;;;6.93;;
61523;SDS011;47393;38.758;-9.164;2023-08-06T06:18:48;25.15;;;7.22;;
61523;SDS011;47393;38.758;-9.164;2023-08-06T06:20:49;23.15;;;7.28;;
61523;SDS011;47393;38.758;-9.164;2023-08-06T06:22:51;20.33;;;7.43;;
61523;SDS011;47393;38.758;-9.164;2023-08-06T06:24:51;14.70;;;6.45;;
61523;SDS011;47393;38.758;-9.164;2023-08-06T06:26:53;28.08;;;7.88;;
61523;SDS011;47393;38.758;-9.164;2023-08-06T06:28:54;17.98;;;7.13;;
61523;SDS011;47393;38.758;-9.164;2023-08-06T06:30:59;24.75;;;8.20;;
61523;SDS011;47393;38.758;-9.164;2023-08-06T06:33:00;17.98;;;6.88;;
61523;SDS011;47393;38.758;-9.164;2023-08-06T06:35:02;18.77;;;7.60;;
61523;SDS011;47393;38.758;-9.164;2023-08-06T06:37:03;24.80;;;8.57;;
61523;SDS011;47393;38.758;-9.164;2023-08-06T06:39:04;21.88;;;8.15;;
61523;SDS011;47393;38.758;-9.164;2023-08-06T06:41:05;22.17;;;8.32;;
61523;SDS011;47393;38.758;-9.164;2023-08-06T06:43:06;19.85;;;7.28;;
61523;SDS011;47393;38.758;-9.164;2023-08-06T06:45:08;18.00;;;6.97;;
61523;SDS011;47393;38.758;-9.164;2023-08-06T06:47:11;17.30;;;7.05;;
61523;SDS011;47393;38.758;-9.164;2023-08-06T06:49:11;20.17;;;6.72;;
61523;SDS011;47393;38.758;-9.164;2023-08-06T06:51:13;18.15;;;7.50;;
61523;SDS011;47393;38.758;-9.164;2023-08-06T06:53:14;22.45;;;7.45;;
61523;SDS011;47393;38.758;-9.164;2023-08-06T06:55:15;19.20;;;6.50;;
61523;SDS011;47393;38.758;-9.164;2023-08-06T06:57:15;23.17;;;6.18;;
61523;SDS011;47393;38.758;-9.164;2023-08-06T06:59:16;20.73;;;5.75;;
61523;SDS011;47393;38.758;-9.164;2023-08-06T07:01:17;10.60;;;5.45;;
61523;SDS011;47393;38.758;-9.164;2023-08-06T07:03:21;22.48;;;6.03;;
61523;SDS011;47393;38.758;-9.164;2023-08-06T07:05:22;23.30;;;6.68;;
61523;SDS011;47393;38.758;-9.164;2023-08-06T07:07:23;16.70;;;5.75;;
61523;SDS011;47393;38.758;-9.164;2023-08-06T07:09:23;21.98;;;6.22;;
61523;SDS011;47393;38.758;-9.164;2023-08-06T07:11:24;17.65;;;6.15;;
61523;SDS011;47393;38.758;-9.164;2023-08-06T07:13:25;15.90;;;6.40;;
61523;SDS011;47393;38.758;-9.164;2023-08-06T07:15:26;17.20;;;6.93;;
61523;SDS011;47393;38.758;-9.164;2023-08-06T07:17:26;17.50;;;6.68;;
61523;SDS011;47393;38.758;-9.164;2023-08-06T07:19:27;13.52;;;5.22;;
61523;SDS011;47393;38.758;-9.164;2023-08-06T07:21:28;13.05;;;5.25;;
61523;SDS011;47393;38.758;-9.164;2023-08-06T07:23:30;17.73;;;4.57;;
61523;SDS011;47393;38.758;-9.164;2023-08-06T07:25:31;10.20;;;4.47;;
61523;SDS011;47393;38.758;-9.164;2023-08-06T07:27:32;12.52;;;5.00;;
61523;SDS011;47393;38.758;-9.164;2023-08-06T07:29:33;13.35;;;4.70;;
61523;SDS011;47393;38.758;-9.164;2023-08-06T07:31:33;12.05;;;4.60;;
61523;SDS011;47393;38.758;-9.164;2023-08-06T07:33:34;17.75;;;5.22;;
61523;SDS011;47393;38.758;-9.164;2023-08-06T07:35:35;10.93;;;4.82;;
61523;SDS011;47393;38.758;-9.164;2023-08-06T07:37:37;13.20;;;4.28;;
61523;SDS011;47393;38.758;-9.164;2023-08-06T07:39:38;10.30;;;4.70;;
61523;SDS011;47393;38.758;-9.164;2023-08-06T07:41:39;14.80;;;4.65;;
61523;SDS011;47393;38.758;-9.164;2023-08-06T07:43:41;8.70;;;4.40;;
61523;SDS011;47393;38.758;-9.164;2023-08-06T07:45:43;9.07;;;3.78;;
61523;SDS011;47393;38.758;-9.164;2023-08-06T07:47:45;15.65;;;4.07;;
61523;SDS011;47393;38.758;-9.164;2023-08-06T07:49:47;11.93;;;4.03;;
61523;SDS011;47393;38.758;-9.164;2023-08-06T07:51:48;8.45;;;4.15;;
61523;SDS011;47393;38.758;-9.164;2023-08-06T07:53:50;8.85;;;3.75;;
61523;SDS011;47393;38.758;-9.164;2023-08-06T07:55:51;9.60;;;3.97;;
61523;SDS011;47393;38.758;-9.164;2023-08-06T07:57:53;6.68;;;4.03;;
61523;SDS011;47393;38.758;-9.164;2023-08-06T07:59:54;6.82;;;3.95;;
61523;SDS011;47393;38.758;-9.164;2023-08-06T08:01:54;15.70;;;4.10;;
61523;SDS011;47393;38.758;-9.164;2023-08-06T08:03:55;16.25;;;4.57;;
61523;SDS011;47393;38.758;-9.164;2023-08-06T08:05:56;15.30;;;4.28;;
61523;SDS011;47393;38.758;-9.164;2023-08-06T08:08:00;7.85;;;4.35;;
61523;SDS011;47393;38.758;-9.164;2023-08-06T08:10:01;9.60;;;4.50;;
61523;SDS011;47393;38.758;-9.164;2023-08-06T08:12:03;15.35;;;4.53;;
61523;SDS011;47393;38.758;-9.164;2023-08-06T08:14:04;10.90;;;4.20;;
61523;SDS011;47393;38.758;-9.164;2023-08-06T08:16:06;13.95;;;4.00;;
61523;SDS011;47393;38.758;-9.164;2023-08-06T08:18:07;12.88;;;3.90;;
61523;SDS011;47393;38.758;-9.164;2023-08-06T08:20:08;16.52;;;4.22;;
61523;SDS011;47393;38.758;-9.164;2023-08-06T08:22:09;12.45;;;4.35;;
61523;SDS011;47393;38.758;-9.164;2023-08-06T08:24:11;17.40;;;4.78;;
61523;SDS011;47393;38.758;-9.164;2023-08-06T08:26:12;20.63;;;4.43;;
61523;SDS011;47393;38.758;-9.164;2023-08-06T08:28:13;15.43;;;4.10;;
61523;SDS011;47393;38.758;-9.164;2023-08-06T08:30:14;9.50;;;3.92;;
61523;SDS011;47393;38.758;-9.164;2023-08-06T08:32:16;17.08;;;4.72;;
61523;SDS011;47393;38.758;-9.164;2023-08-06T08:34:18;4.60;;;3.60;;
61523;SDS011;47393;38.758;-9.164;2023-08-06T08:36:19;11.18;;;4.13;;
61523;SDS011;47393;38.758;-9.164;2023-08-06T08:38:20;19.23;;;5.13;;
61523;SDS011;47393;38.758;-9.164;2023-08-06T08:40:21;17.38;;;4.90;;
61523;SDS011;47393;38.758;-9.164;2023-08-06T08:42:24;18.08;;;3.97;;
61523;SDS011;47393;38.758;-9.164;2023-08-06T08:44:25;17.58;;;4.93;;
61523;SDS011;47393;38.758;-9.164;2023-08-06T08:46:31;13.20;;;4.38;;
61523;SDS011;47393;38.758;-9.164;2023-08-06T08:48:35;18.83;;;3.88;;
61523;SDS011;47393;38.758;-9.164;2023-08-06T08:50:37;24.23;;;4.05;;
61523;SDS011;47393;38.758;-9.164;2023-08-06T08:52:38;15.52;;;4.50;;
61523;SDS011;47393;38.758;-9.164;2023-08-06T08:54:41;13.57;;;4.07;;
61523;SDS011;47393;38.758;-9.164;2023-08-06T08:56:44;20.88;;;4.57;;
61523;SDS011;47393;38.758;-9.164;2023-08-06T08:58:58;9.70;;;4.60;;
61523;SDS011;47393;38.758;-9.164;2023-08-06T09:01:07;12.85;;;4.90;;
61523;SDS011;47393;38.758;-9.164;2023-08-06T09:03:10;13.52;;;4.57;;
61523;SDS011;47393;38.758;-9.164;2023-08-06T09:05:11;10.38;;;4.63;;
61523;SDS011;47393;38.758;-9.164;2023-08-06T09:07:13;6.22;;;4.13;;
61523;SDS011;47393;38.758;-9.164;2023-08-06T09:09:17;10.48;;;4.90;;
61523;SDS011;47393;38.758;-9.164;2023-08-06T09:11:24;7.15;;;5.22;;
61523;SDS011;47393;38.758;-9.164;2023-08-06T09:13:27;16.58;;;5.07;;
61523;SDS011;47393;38.758;-9.164;2023-08-06T09:15:28;19.58;;;5.50;;
61523;SDS011;47393;38.758;-9.164;2023-08-06T09:17:34;17.98;;;5.03;;
61523;SDS011;47393;38.758;-9.164;2023-08-06T09:19:35;8.95;;;5.45;;
61523;SDS011;47393;38.758;-9.164;2023-08-06T09:21:39;12.25;;;5.78;;
61523;SDS011;47393;38.758;-9.164;2023-08-06T09:23:40;20.98;;;6.20;;
61523;SDS011;47393;38.758;-9.164;2023-08-06T09:25:42;18.92;;;6.05;;
61523;SDS011;47393;38.758;-9.164;2023-08-06T09:27:46;13.75;;;6.80;;
61523;SDS011;47393;38.758;-9.164;2023-08-06T09:29:47;22.33;;;6.43;;
61523;SDS011;47393;38.758;-9.164;2023-08-06T09:31:48;9.93;;;5.82;;
61523;SDS011;47393;38.758;-9.164;2023-08-06T09:33:49;19.27;;;6.00;;
61523;SDS011;47393;38.758;-9.164;2023-08-06T09:35:51;15.95;;;6.38;;
61523;SDS011;47393;38.758;-9.164;2023-08-06T09:39:54;10.15;;;7.97;;
61523;SDS011;47393;38.758;-9.164;2023-08-06T09:41:56;14.25;;;6.68;;
61523;SDS011;47393;38.758;-9.164;2023-08-06T09:43:56;11.15;;;6.45;;
61523;SDS011;47393;38.758;-9.164;2023-08-06T09:45:57;13.10;;;7.05;;
61523;SDS011;47393;38.758;-9.164;2023-08-06T09:48:00;8.60;;;7.03;;
61523;SDS011;47393;38.758;-9.164;2023-08-06T09:50:02;14.82;;;6.30;;
61523;SDS011;47393;38.758;-9.164;2023-08-06T09:52:05;18.02;;;7.93;;
61523;SDS011;47393;38.758;-9.164;2023-08-06T09:54:06;14.07;;;7.63;;
61523;SDS011;47393;38.758;-9.164;2023-08-06T09:56:28;12.60;;;7.07;;
61523;SDS011;47393;38.758;-9.164;2023-08-06T09:58:29;18.50;;;7.70;;
61523;SDS011;47393;38.758;-9.164;2023-08-06T10:00:33;9.05;;;5.72;;
61523;SDS011;47393;38.758;-9.164;2023-08-06T10:02:37;20.58;;;6.10;;
61523;SDS011;47393;38.758;-9.164;2023-08-06T10:04:41;11.30;;;6.20;;
61523;SDS011;47393;38.758;-9.164;2023-08-06T10:08:46;20.88;;;7.25;;
61523;SDS011;47393;38.758;-9.164;2023-08-06T10:10:48;11.07;;;7.00;;
61523;SDS011;47393;38.758;-9.164;2023-08-06T10:12:49;28.60;;;6.82;;
61523;SDS011;47393;38.758;-9.164;2023-08-06T10:14:54;22.08;;;7.47;;
61523;SDS011;47393;38.758;-9.164;2023-08-06T10:16:56;12.15;;;7.68;;
61523;SDS011;47393;38.758;-9.164;2023-08-06T10:18:58;24.08;;;8.45;;
61523;SDS011;47393;38.758;-9.164;2023-08-06T10:21:00;19.33;;;8.80;;
61523;SDS011;47393;38.758;-9.164;2023-08-06T10:23:05;17.92;;;8.73;;
61523;SDS011;47393;38.758;-9.164;2023-08-06T10:25:06;12.85;;;7.95;;
61523;SDS011;47393;38.758;-9.164;2023-08-06T10:27:08;46.58;;;9.82;;
61523;SDS011;47393;38.758;-9.164;2023-08-06T10:31:52;16.55;;;8.50;;
61523;SDS011;47393;38.758;-9.164;2023-08-06T10:33:49;20.70;;;8.75;;
61523;SDS011;47393;38.758;-9.164;2023-08-06T10:35:50;18.33;;;9.25;;
61523;SDS011;47393;38.758;-9.164;2023-08-06T10:37:51;27.20;;;10.27;;
61523;SDS011;47393;38.758;-9.164;2023-08-06T10:39:52;20.48;;;8.65;;
61523;SDS011;47393;38.758;-9.164;2023-08-06T10:41:53;28.58;;;8.40;;
61523;SDS011;47393;38.758;-9.164;2023-08-06T10:44:07;18.50;;;8.38;;
61523;SDS011;47393;38.758;-9.164;2023-08-06T10:46:10;17.30;;;8.27;;
61523;SDS011;47393;38.758;-9.164;2023-08-06T10:48:11;33.17;;;8.35;;
61523;SDS011;47393;38.758;-9.164;2023-08-06T10:50:12;23.38;;;8.25;;
61523;SDS011;47393;38.758;-9.164;2023-08-06T10:52:15;23.77;;;7.80;;
61523;SDS011;47393;38.758;-9.164;2023-08-06T10:54:15;26.67;;;8.27;;
61523;SDS011;47393;38.758;-9.164;2023-08-06T10:56:17;21.42;;;8.02;;
61523;SDS011;47393;38.758;-9.164;2023-08-06T10:58:19;18.38;;;8.48;;
61523;SDS011;47393;38.758;-9.164;2023-08-06T11:00:23;16.13;;;8.80;;
61523;SDS011;47393;38.758;-9.164;2023-08-06T11:02:26;29.13;;;8.73;;
61523;SDS011;47393;38.758;-9.164;2023-08-06T11:04:30;28.65;;;8.02;;
61523;SDS011;47393;38.758;-9.164;2023-08-06T11:06:31;18.17;;;8.50;;
61523;SDS011;47393;38.758;-9.164;2023-08-06T11:08:35;17.30;;;7.78;;
61523;SDS011;47393;38.758;-9.164;2023-08-06T11:10:39;20.23;;;7.60;;
61523;SDS011;47393;38.758;-9.164;2023-08-06T11:12:40;23.52;;;7.03;;
61523;SDS011;47393;38.758;-9.164;2023-08-06T11:14:40;23.67;;;6.97;;
61523;SDS011;47393;38.758;-9.164;2023-08-06T11:16:42;17.25;;;7.10;;
61523;SDS011;47393;38.758;-9.164;2023-08-06T11:18:48;15.38;;;6.35;;
61523;SDS011;47393;38.758;-9.164;2023-08-06T11:20:49;22.33;;;7.18;;
61523;SDS011;47393;38.758;-9.164;2023-08-06T11:22:51;14.85;;;6.47;;
61523;SDS011;47393;38.758;-9.164;2023-08-06T11:24:53;13.77;;;6.00;;
61523;SDS011;47393;38.758;-9.164;2023-08-06T11:26:54;13.48;;;5.63;;
61523;SDS011;47393;38.758;-9.164;2023-08-06T11:28:54;14.90;;;4.57;;
61523;SDS011;47393;38.758;-9.164;2023-08-06T11:30:55;17.85;;;5.90;;
61523;SDS011;47393;38.758;-9.164;2023-08-06T11:32:59;19.13;;;5.90;;
61523;SDS011;47393;38.758;-9.164;2023-08-06T11:35:08;9.98;;;5.07;;
61523;SDS011;47393;38.758;-9.164;2023-08-06T11:37:09;14.63;;;4.30;;
61523;SDS011;47393;38.758;-9.164;2023-08-06T11:39:11;6.78;;;3.70;;
61523;SDS011;47393;38.758;-9.164;2023-08-06T11:41:11;4.90;;;2.97;;
61523;SDS011;47393;38.758;-9.164;2023-08-06T11:43:13;6.55;;;3.50;;
61523;SDS011;47393;38.758;-9.164;2023-08-06T11:45:13;14.98;;;3.88;;
61523;SDS011;47393;38.758;-9.164;2023-08-06T11:47:16;13.40;;;3.90;;
61523;SDS011;47393;38.758;-9.164;2023-08-06T11:49:17;11.25;;;4.20;;
61523;SDS011;47393;38.758;-9.164;2023-08-06T11:51:25;14.57;;;4.57;;
61523;SDS011;47393;38.758;-9.164;2023-08-06T11:53:28;11.77;;;4.13;;
61523;SDS011;47393;38.758;-9.164;2023-08-06T11:55:38;6.93;;;3.72;;
61523;SDS011;47393;38.758;-9.164;2023-08-06T11:57:44;17.23;;;3.90;;
61523;SDS011;47393;38.758;-9.164;2023-08-06T11:59:44;14.30;;;3.30;;
61523;SDS011;47393;38.758;-9.164;2023-08-06T12:01:45;13.80;;;3.65;;
61523;SDS011;47393;38.758;-9.164;2023-08-06T12:03:46;13.25;;;4.07;;
61523;SDS011;47393;38.758;-9.164;2023-08-06T12:05:47;11.15;;;3.78;;